AirNav   Air Wisconsin Up To $57,000 Bonus
 
 1159 users online  

5TA9 Seagoville Airport
Seagoville, Texas, USA

GOING TO SEAGOVILLE?


FAA INFORMATION EFFECTIVE 02 DECEMBER 2021

Location

FAA Identifier: 5TA9
Lat/Long: 32-36-33.0000N 096-31-34.0000W
32-36.550000N 096-31.566667W
32.6091667,-96.5261111
(estimated)
Elevation: 415 ft. / 126 m (estimated)
Variation: 06E (1985)
From city: 2 miles SE of SEAGOVILLE, TX
Time zone: UTC -6 (UTC -5 during Daylight Saving Time)
Zip code: 75159

Airport Operations

Airport use: Private use. Permission required prior to landing
Activation date: 07/1964
Control tower: no
ARTCC: FORT WORTH CENTER
FSS: FORT WORTH FLIGHT SERVICE STATION
Attendance: UNATNDD
Wind indicator: yes
Segmented circle: no

Airport Communications

WX AWOS-3 at HQZ (8 nm N): 118.175 (972-222-7631)
WX AWOS-3 at LNC (10 nm W): 118.975 (972-227-0471)
WX ASOS at TRL (14 nm NE): 119.275 (972-551-1334)
WX AWOS-3 at 49T (17 nm NW): 135.425 (214-670-1243)
WX ASOS at RBD (18 nm W): PHONE 214-330-5317
WX AWOS-3 at F46 (20 nm N): 121.25 (972-772-6699)

Nearby radio navigation aids

VOR radial/distance  VOR name  Freq  Var
CVEr125/25.5COWBOY VOR/DME116.2006E
CQYr322/29.8CEDAR CREEK VORTAC114.8006E
TTTr115/30.3MAVERICK VOR/DME113.1006E
FUZr111/37.0RANGER VORTAC115.7006E

 
NDB name  Hdg/Dist  Freq  Var  ID
MESQUITE176/12.024803EPQF .--. --.- ..-.
POWELL345/33.134406ECGQ -.-. --. --.-
CORSICANA343/35.539606ECRS -.-. .-. ...

Airport Services

Parking: tiedowns
Airframe service: MAJOR
Powerplant service: MAJOR
Bottled oxygen: NONE
Bulk oxygen: NONE

Runway Information

Runway 18/36

Dimensions: 2675 x 60 ft. / 815 x 18 m
Surface: gravel, in good condition
RUNWAY 18  RUNWAY 36
Traffic pattern: leftleft
Runway end identifier lights: nono
Obstructions: 25 ft. trees, 10 ft. from runway, 60 ft. right of centerline25 ft. trees, 10 ft. from runway, 30 ft. right of centerline

Airport Ownership and Management from official FAA records

Ownership: Privately-owned
Owner: GEORGE A. TUNNELL, III
1675 COMBINE ROAD
SEAGOVILLE, TX 75159
Phone 972-287-1375
Manager: GEORGE A. TUNNELL, III
1675 COMBINE ROAD
SEAGOVILLE, TX 75159
Phone 972-287-1375
SEAGOVILLEAIRPORT@GMAIL.COM

Airport Operational Statistics

Aircraft based on the field: 10
Single engine airplanes: 5
Multi engine airplanes: 1
Ultralights: 4
    
Aircraft operations: avg 30/month *
100% local general aviation
* for 12-month period ending 31 December 2010

Additional Remarks

LIVESTOCK ON & INVOF ARPT.
FOR CD CTC REGIONAL APCH AT 972-615-2799.

Instrument Procedures

There are no published instrument procedures at 5TA9.

Some nearby airports with instrument procedures:

KHQZ - Mesquite Metro Airport (8 nm N)
KLNC - Lancaster Regional Airport (10 nm W)
KTRL - Terrell Municipal Airport (14 nm NE)
KRBD - Dallas Executive Airport (18 nm W)
F41 - Ennis Municipal Airport (18 nm SW)
F46 - Ralph M Hall/Rockwall Municipal Airport (20 nm N)
 
Loc | Ops | Rwys | IFR | FBO | Links
Com | Nav | Svcs | Stats | Notes

City of Fort Worth
 
Area around 5TA9 (Seagoville Airport)
 
Road maps at: MapQuest Bing Google
 
Aerial photo
No photo
 
Sectional chart

 
Airport distance calculator
Flying to Seagoville Airport? Find the distance to fly.

From to 5TA9

Sunrise and sunset
Times for 06-Dec-2021
 Local
(UTC-6)
 Zulu
(UTC)
Morning civil twilight06:4812:48
Sunrise07:1513:15
Sunset17:1923:19
Evening civil twilight17:4623:46

Current date and time
Zulu (UTC)  07-Dec-2021 00:25:43
Local (UTC-6)  06-Dec-2021 18:25:43
 
METAR
KHQZ 
8nm N 
062350Z 35008G14KT 10SM CLR 10/M07 A3023
KLNC 
10nm W 
062355Z AUTO 01005KT 10SM CLR 10/M08 A3024 RMK AO2 T01001082 10137 20100
KTRL 
15nm NE 
062353Z AUTO 36008KT 10SM CLR 10/M05 A3022 RMK AO2 SLP233 T01001050 10139 20100 53010
KRBD 
18nm W 
062353Z 35008KT 10SM CLR 09/M08 A3022 RMK AO2 SLP233 T00941078 10133 20094 51008
KF46 
20nm N 
062355Z AUTO 36006KT 10SM CLR 09/M06 A3023 RMK AO2 T00871065 10126 20087
TAF
KDAL 
22nm NW 
062050Z 0621/0718 01015G25KT P6SM SKC FM062300 02010KT P6SM SKC FM071100 13005KT P6SM FEW250
NOTAMs
Click for the latest NOTAMs
NOTAMs are issued by the DoD/FAA and will open in a separate window not controlled by AirNav.

 

 
 

Would you like to see your business listed on this page?

 If your business provides an interesting product or service to pilots, flight crews, aircraft, or users of the Seagoville Airport, you should consider listing it here.  To start the listing process, click on the button below
 
Add a business
 

Other Pages about Seagoville Airport

Update a link
 
Copyright © AirNav, LLC. All rights reserved. Privacy Policy  Contact